TAF Text Data
IDs:
Format:
Raw Decoded Include METAR

Data at: 1515 UTC 23 Sep 2021

KOGB 231430Z 2314/2412 35007KT P6SM SKC
  FM231500 34007KT P6SM SKC
  FM240300 01003KT P6SM SKC